Terminal Aerodrome Forecast
Issued by NWS

Home | Current Version | Previous Version | Text Only | Print | Product List | Glossary On
Versions: 1 2 3 4 5 6 7 8 9 10 11 12 13
000
FTAK31 PAJN 212300
TAFAPG
TAF
PAPG 212324Z 2200/2224 VRB04KT P6SM -RA FEW030 SCT060 OVC070
      TEMPO 2200/2203 12010G15KT
     FM220300 21006KT 6SM -SHRA SCT035 OVC050
     FM220900 VRB03KT 4SM -SHRA BR BKN015 OVC025
     FM221500 VRB03KT 5SM -SHRA BKN025 OVC040
     FM222100 06005KT P6SM -SHRA SCT035 OVC060
      AMD LTD TO CLD VIS AND WIND 2206/2215=

USA.gov is the U.S. government's official web portal to all federal, state and local government web resources and services.